createdAt,value
2019-02-09T00:01:34.063Z,76.17
2019-02-09T00:02:41.793Z,76.23
2019-02-09T00:03:49.311Z,76.38
2019-02-09T00:04:56.453Z,76.36
2019-02-09T00:06:02.894Z,76.36
2019-02-09T00:07:08.964Z,76.44
2019-02-09T00:08:15.916Z,76.37
2019-02-09T00:09:22.938Z,76.30
2019-02-09T00:10:29.684Z,76.27
2019-02-09T00:11:38.922Z,76.34
2019-02-09T00:12:48.090Z,76.38
2019-02-09T00:13:54.710Z,76.39
2019-02-09T00:15:01.976Z,76.42
2019-02-09T00:16:08.683Z,76.46
2019-02-09T00:17:15.483Z,76.36
2019-02-09T00:18:22.570Z,76.46
2019-02-09T00:19:29.792Z,76.49
2019-02-09T00:20:37.141Z,76.50
2019-02-09T00:21:45.062Z,76.66
2019-02-09T00:22:52.484Z,76.89
2019-02-09T00:23:59.309Z,76.78
2019-02-09T00:25:16.726Z,76.98
2019-02-09T00:26:22.732Z,76.81
2019-02-09T00:27:29.708Z,76.96
2019-02-09T00:28:37.112Z,77.02
2019-02-09T00:29:49.286Z,76.95
2019-02-09T00:30:55.315Z,77.06
2019-02-09T00:32:02.762Z,76.97
2019-02-09T00:33:09.218Z,76.93
2019-02-09T00:34:16.281Z,76.87
2019-02-09T00:35:23.359Z,76.85
2019-02-09T00:36:30.633Z,76.80
2019-02-09T00:37:36.999Z,76.76
2019-02-09T00:38:43.544Z,76.74
2019-02-09T00:39:50.725Z,76.76
2019-02-09T00:40:57.978Z,76.75
2019-02-09T00:42:05.300Z,76.83
2019-02-09T00:43:12.233Z,76.79
2019-02-09T00:44:18.468Z,76.85
2019-02-09T00:45:26.639Z,76.84
2019-02-09T00:46:32.715Z,76.86
2019-02-09T00:47:39.423Z,77.01
2019-02-09T00:48:46.268Z,76.93
2019-02-09T00:49:53.979Z,76.95
2019-02-09T00:51:01.668Z,76.96
2019-02-09T00:52:08.701Z,77.01
2019-02-09T00:53:15.375Z,76.92
2019-02-09T00:54:22.085Z,76.94
2019-02-09T00:55:30.177Z,77.01
2019-02-09T00:56:36.508Z,76.97
2019-02-09T00:57:42.745Z,76.96
2019-02-09T00:58:49.192Z,76.92
2019-02-09T00:59:55.878Z,76.87
2019-02-09T01:01:03.326Z,76.87
2019-02-09T01:02:10.067Z,76.83
2019-02-09T01:03:16.954Z,76.76
2019-02-09T01:04:23.512Z,76.81
2019-02-09T01:05:40.338Z,76.93
2019-02-09T01:06:46.708Z,76.91
2019-02-09T01:07:53.760Z,76.88
2019-02-09T01:09:00.250Z,76.83
2019-02-09T01:10:11.719Z,76.85
2019-02-09T01:11:18.199Z,77.00
2019-02-09T01:12:24.913Z,77.00
2019-02-09T01:13:31.462Z,77.08
2019-02-09T01:14:39.081Z,76.99
2019-02-09T01:15:47.161Z,77.03
2019-02-09T01:16:53.603Z,77.01
2019-02-09T01:18:00.095Z,77.01
2019-02-09T01:19:07.086Z,76.96
2019-02-09T01:20:23.295Z,77.04
2019-02-09T01:21:30.769Z,77.05
2019-02-09T01:22:38.927Z,77.02
2019-02-09T01:23:45.295Z,76.97
2019-02-09T01:24:52.983Z,76.93
2019-02-09T01:25:59.779Z,76.92
2019-02-09T01:27:06.413Z,76.82
2019-02-09T01:28:12.592Z,76.73
2019-02-09T01:29:18.732Z,76.76
2019-02-09T01:30:30.317Z,76.86
2019-02-09T01:31:37.878Z,76.71
2019-02-09T01:32:44.056Z,76.86
2019-02-09T01:33:50.195Z,76.70
2019-02-09T01:34:56.764Z,76.73
2019-02-09T01:36:03.730Z,76.69
2019-02-09T01:37:10.338Z,76.69
2019-02-09T01:38:25.365Z,76.60
2019-02-09T01:39:33.837Z,76.52
2019-02-09T01:40:40.448Z,76.54
2019-02-09T01:41:46.947Z,76.51
2019-02-09T01:42:53.621Z,76.48
2019-02-09T01:44:00.583Z,76.32
2019-02-09T01:45:12.287Z,76.40
2019-02-09T01:46:18.920Z,76.30
2019-02-09T01:47:26.048Z,76.25
2019-02-09T01:48:33.287Z,76.23
2019-02-09T01:49:39.877Z,76.15
2019-02-09T01:50:46.797Z,76.02
2019-02-09T01:51:53.101Z,75.98
2019-02-09T01:53:01.668Z,75.88
2019-02-09T01:54:07.462Z,75.87
2019-02-09T01:55:14.023Z,75.83
2019-02-09T01:56:20.683Z,75.76
2019-02-09T01:57:26.549Z,75.82
2019-02-09T01:58:33.572Z,75.82
2019-02-09T01:59:41.831Z,75.77
2019-02-09T02:00:47.964Z,75.82
2019-02-09T02:01:55.143Z,75.83
2019-02-09T02:03:01.390Z,75.83
2019-02-09T02:04:08.056Z,75.74
2019-02-09T02:05:16.956Z,75.74
2019-02-09T02:06:26.589Z,75.73
2019-02-09T02:07:37.623Z,75.66
2019-02-09T02:08:55.571Z,75.57
2019-02-09T02:10:23.883Z,75.46
2019-02-09T02:11:30.402Z,75.40
2019-02-09T02:12:36.395Z,75.31
2019-02-09T02:13:42.879Z,75.28
2019-02-09T02:14:49.876Z,75.18
2019-02-09T02:15:56.742Z,74.99
2019-02-09T02:17:02.756Z,75.02
2019-02-09T02:18:09.981Z,75.02
2019-02-09T02:19:16.519Z,75.07
2019-02-09T02:20:34.092Z,75.07
2019-02-09T02:21:41.159Z,75.06
2019-02-09T02:22:49.133Z,75.14
2019-02-09T02:23:55.712Z,75.16
2019-02-09T02:25:03.070Z,75.16
2019-02-09T02:26:11.171Z,75.19
2019-02-09T02:27:18.548Z,75.21
2019-02-09T02:28:25.188Z,75.25
2019-02-09T02:29:32.070Z,75.23
2019-02-09T02:30:40.036Z,75.36
2019-02-09T02:31:47.449Z,75.34
2019-02-09T02:32:53.890Z,75.30
2019-02-09T02:33:59.682Z,75.29
2019-02-09T02:35:09.332Z,75.24
2019-02-09T02:36:15.673Z,75.23
2019-02-09T02:37:21.984Z,75.18
2019-02-09T02:38:28.502Z,75.18
2019-02-09T02:39:35.688Z,75.16
2019-02-09T02:40:42.253Z,75.14
2019-02-09T02:41:49.016Z,75.20
2019-02-09T02:42:55.516Z,75.19
2019-02-09T02:44:02.342Z,75.27
2019-02-09T02:45:16.071Z,75.36
2019-02-09T02:46:24.213Z,75.51
2019-02-09T02:47:30.959Z,75.46
2019-02-09T02:48:37.291Z,75.49
2019-02-09T02:49:44.014Z,75.53
2019-02-09T02:50:50.903Z,75.59
2019-02-09T02:51:58.498Z,75.64
2019-02-09T02:53:05.149Z,75.56
2019-02-09T02:54:11.603Z,75.48
2019-02-09T02:55:27.284Z,75.49
2019-02-09T02:56:33.924Z,75.44
2019-02-09T02:57:41.052Z,75.41
2019-02-09T02:58:47.783Z,75.37
2019-02-09T02:59:54.228Z,75.32
2019-02-09T03:01:00.754Z,75.35
2019-02-09T03:02:08.072Z,75.28
2019-02-09T03:03:14.555Z,75.39
2019-02-09T03:04:21.834Z,75.42
2019-02-09T03:05:28.576Z,75.44
2019-02-09T03:06:34.858Z,75.48
2019-02-09T03:07:41.650Z,75.49
2019-02-09T03:08:49.440Z,75.51
2019-02-09T03:09:55.808Z,75.51
2019-02-09T03:11:02.029Z,75.69
2019-02-09T03:12:08.595Z,75.62
2019-02-09T03:13:15.721Z,75.60
2019-02-09T03:14:22.008Z,75.66
2019-02-09T03:15:37.035Z,75.58
2019-02-09T03:16:43.946Z,75.62
2019-02-09T03:17:49.919Z,75.62
2019-02-09T03:18:56.159Z,75.61
2019-02-09T03:20:03.517Z,75.60
2019-02-09T03:21:10.355Z,75.60
2019-02-09T03:22:16.386Z,75.54
2019-02-09T03:23:23.085Z,75.50
2019-02-09T03:24:30.444Z,75.61
2019-02-09T03:25:49.845Z,75.50
2019-02-09T03:27:11.293Z,75.52
2019-02-09T03:28:23.392Z,75.46
2019-02-09T03:29:49.705Z,75.38
2019-02-09T03:31:06.300Z,75.48
2019-02-09T03:32:20.130Z,75.48
2019-02-09T03:33:27.874Z,75.41
2019-02-09T03:34:34.242Z,75.43
2019-02-09T03:35:40.427Z,75.44
2019-02-09T03:36:46.707Z,75.41
2019-02-09T03:37:53.662Z,75.53
2019-02-09T03:39:00.468Z,75.44
2019-02-09T03:40:15.549Z,75.54
2019-02-09T03:41:22.351Z,75.56
2019-02-09T03:42:29.631Z,75.61
2019-02-09T03:43:37.915Z,75.65
2019-02-09T03:44:44.803Z,75.66
2019-02-09T03:45:58.908Z,75.60
2019-02-09T03:47:20.215Z,75.53
2019-02-09T03:48:28.617Z,75.42
2019-02-09T03:49:34.730Z,75.33
2019-02-09T03:50:43.061Z,75.28
2019-02-09T03:51:50.016Z,75.17
2019-02-09T03:52:57.151Z,75.18
2019-02-09T03:54:05.116Z,75.18
2019-02-09T03:55:11.952Z,75.16
2019-02-09T03:56:32.974Z,75.12
2019-02-09T03:57:51.467Z,75.12
2019-02-09T03:59:15.366Z,75.15
2019-02-09T04:00:54.760Z,75.16
2019-02-09T04:02:03.046Z,75.20
2019-02-09T04:03:09.529Z,75.17
2019-02-09T04:04:16.033Z,75.00
2019-02-09T04:05:22.625Z,75.00
2019-02-09T04:06:29.559Z,74.93
2019-02-09T04:07:37.511Z,74.89
2019-02-09T04:08:45.654Z,75.04
2019-02-09T04:09:57.191Z,74.85
2019-02-09T04:11:25.012Z,74.79
2019-02-09T04:12:32.051Z,74.74
2019-02-09T04:13:38.814Z,74.67
2019-02-09T04:14:53.200Z,74.63
2019-02-09T04:15:59.213Z,74.58
2019-02-09T04:17:06.979Z,74.54
2019-02-09T04:18:19.626Z,74.51
2019-02-09T04:19:33.146Z,74.35
2019-02-09T04:20:39.598Z,74.36
2019-02-09T04:21:47.052Z,74.47
2019-02-09T04:22:54.153Z,74.38
2019-02-09T04:24:04.124Z,74.39
2019-02-09T04:25:14.627Z,74.53
2019-02-09T04:26:24.999Z,74.54
2019-02-09T04:27:34.132Z,74.62
2019-02-09T04:28:40.699Z,74.55
2019-02-09T04:29:47.538Z,74.37
2019-02-09T04:30:53.931Z,74.39
2019-02-09T04:32:01.047Z,74.49
2019-02-09T04:33:16.460Z,74.50
2019-02-09T04:34:28.729Z,74.52
2019-02-09T04:35:35.730Z,74.48
2019-02-09T04:36:42.926Z,74.37
2019-02-09T04:37:49.172Z,74.45
2019-02-09T04:38:55.527Z,74.31
2019-02-09T04:40:02.010Z,74.16
2019-02-09T04:41:09.069Z,74.08
2019-02-09T04:42:15.240Z,74.03
2019-02-09T04:43:21.851Z,73.98
2019-02-09T04:44:27.977Z,74.02
2019-02-09T04:45:34.900Z,73.88
2019-02-09T04:46:41.290Z,73.92
2019-02-09T04:47:48.037Z,74.00
2019-02-09T04:48:58.014Z,74.03
2019-02-09T04:50:05.684Z,74.00
2019-02-09T04:51:12.782Z,73.99
2019-02-09T04:52:19.176Z,74.05
2019-02-09T04:53:26.010Z,73.97
2019-02-09T04:54:32.202Z,74.01
2019-02-09T04:55:40.857Z,74.05
2019-02-09T04:56:47.265Z,74.08
2019-02-09T04:57:57.426Z,74.15
2019-02-09T04:59:04.258Z,74.19
2019-02-09T05:00:23.845Z,74.09
2019-02-09T05:01:30.717Z,74.01
2019-02-09T05:02:37.493Z,73.84
2019-02-09T05:03:45.863Z,73.77
2019-02-09T05:04:52.694Z,73.71
2019-02-09T05:05:59.007Z,73.60
2019-02-09T05:07:05.564Z,73.62
2019-02-09T05:08:13.019Z,73.58
2019-02-09T05:09:20.042Z,73.73
2019-02-09T05:10:27.473Z,73.78
2019-02-09T05:11:34.151Z,73.84
2019-02-09T05:12:41.188Z,73.75
2019-02-09T05:13:47.354Z,73.76
2019-02-09T05:14:55.974Z,73.91
2019-02-09T05:16:03.267Z,73.97
2019-02-09T05:17:09.906Z,73.92
2019-02-09T05:18:16.424Z,73.93
2019-02-09T05:19:22.512Z,73.90
2019-02-09T05:20:29.236Z,73.83
2019-02-09T05:21:36.175Z,73.76
2019-02-09T05:22:44.393Z,73.60
2019-02-09T05:23:50.501Z,73.66
2019-02-09T05:24:57.534Z,73.57
2019-02-09T05:26:07.038Z,73.41
2019-02-09T05:27:13.688Z,73.42
2019-02-09T05:28:19.856Z,73.37
2019-02-09T05:29:26.505Z,73.35
2019-02-09T05:30:35.215Z,73.15
2019-02-09T05:31:43.593Z,73.24
2019-02-09T05:32:49.388Z,73.31
2019-02-09T05:33:56.274Z,73.19
2019-02-09T05:35:03.155Z,73.37
2019-02-09T05:36:10.531Z,73.30
2019-02-09T05:37:25.253Z,73.22
2019-02-09T05:38:30.138Z,73.35
2019-02-09T05:39:36.336Z,73.27
2019-02-09T05:40:43.165Z,73.33
2019-02-09T05:41:49.693Z,73.13
2019-02-09T05:42:56.395Z,73.28
2019-02-09T05:44:02.954Z,73.32
2019-02-09T05:45:18.056Z,73.35
2019-02-09T05:46:24.140Z,73.33
2019-02-09T05:47:30.982Z,73.08
2019-02-09T05:48:37.117Z,73.06
2019-02-09T05:49:45.813Z,72.84
2019-02-09T05:50:51.632Z,72.90
2019-02-09T05:51:58.978Z,72.94
2019-02-09T05:53:05.432Z,73.01
2019-02-09T05:54:12.711Z,72.86
2019-02-09T05:55:21.106Z,72.75
2019-02-09T05:56:27.145Z,72.82
2019-02-09T05:57:33.218Z,72.78
2019-02-09T05:58:40.265Z,73.01
2019-02-09T05:59:46.777Z,72.89
2019-02-09T06:00:54.110Z,73.03
2019-02-09T06:02:00.993Z,73.04
2019-02-09T06:03:07.543Z,72.97
2019-02-09T06:04:14.771Z,73.16
2019-02-09T06:05:21.583Z,73.10
2019-02-09T06:06:28.102Z,72.86
2019-02-09T06:07:35.418Z,73.14
2019-02-09T06:08:42.198Z,73.09
2019-02-09T06:09:48.976Z,72.91
2019-02-09T06:10:55.709Z,72.94
2019-02-09T06:12:02.685Z,72.79
2019-02-09T06:13:09.402Z,72.68
2019-02-09T06:14:15.907Z,72.65
2019-02-09T06:15:27.139Z,72.47
2019-02-09T06:16:34.030Z,72.55
2019-02-09T06:17:41.483Z,72.48
2019-02-09T06:18:48.685Z,72.43
2019-02-09T06:19:55.932Z,72.33
2019-02-09T06:21:02.054Z,72.38
2019-02-09T06:22:08.284Z,72.29
2019-02-09T06:23:15.643Z,72.45
2019-02-09T06:24:22.037Z,72.40
2019-02-09T06:25:29.899Z,72.29
2019-02-09T06:26:36.598Z,72.32
2019-02-09T06:27:43.484Z,72.48
2019-02-09T06:28:50.446Z,72.23
2019-02-09T06:29:56.806Z,72.30
2019-02-09T06:31:03.505Z,72.25
2019-02-09T06:32:10.146Z,71.97
2019-02-09T06:33:16.149Z,71.96
2019-02-09T06:34:23.108Z,72.01
2019-02-09T06:35:30.219Z,71.82
2019-02-09T06:36:36.540Z,71.63
2019-02-09T06:37:44.411Z,71.53
2019-02-09T06:38:50.802Z,71.52
2019-02-09T06:39:58.040Z,71.43
2019-02-09T06:41:04.656Z,71.28
2019-02-09T06:42:11.085Z,71.21
2019-02-09T06:43:18.185Z,71.20
2019-02-09T06:44:25.210Z,71.30
2019-02-09T06:45:31.681Z,71.31
2019-02-09T06:46:38.851Z,71.31
2019-02-09T06:47:44.912Z,71.38
2019-02-09T06:48:51.048Z,71.27
2019-02-09T06:49:58.760Z,71.29
2019-02-09T06:51:05.691Z,71.36
2019-02-09T06:52:12.015Z,71.14
2019-02-09T06:53:18.106Z,71.37
2019-02-09T06:54:26.512Z,71.23
2019-02-09T06:55:39.411Z,70.99
2019-02-09T06:56:46.146Z,70.81
2019-02-09T06:57:52.740Z,70.94
2019-02-09T06:58:59.306Z,70.82
2019-02-09T07:00:11.493Z,70.87
2019-02-09T07:01:17.547Z,70.72
2019-02-09T07:02:24.315Z,70.40
2019-02-09T07:03:57.593Z,70.54
2019-02-09T07:09:55.803Z,70.81
2019-02-09T07:11:02.232Z,70.83
2019-02-09T07:12:08.753Z,70.77
2019-02-09T07:13:16.273Z,70.82
2019-02-09T07:14:23.413Z,70.93
2019-02-09T07:15:38.059Z,70.82
2019-02-09T07:16:44.045Z,70.87
2019-02-09T07:17:51.020Z,70.80
2019-02-09T07:18:57.549Z,70.70
2019-02-09T07:20:06.176Z,70.61
2019-02-09T07:21:12.379Z,70.67
2019-02-09T07:22:19.030Z,70.61
2019-02-09T07:23:26.241Z,70.57
2019-02-09T07:24:33.074Z,70.57
2019-02-09T07:25:40.034Z,70.67
2019-02-09T07:26:46.719Z,70.66
2019-02-09T07:27:54.426Z,70.41
2019-02-09T07:29:01.027Z,70.35
2019-02-09T07:30:12.429Z,70.31
2019-02-09T07:31:19.013Z,70.30
2019-02-09T07:32:26.339Z,70.43
2019-02-09T07:33:32.985Z,70.46
2019-02-09T07:34:40.182Z,70.51
2019-02-09T07:35:46.923Z,70.47
2019-02-09T07:36:53.588Z,70.64
2019-02-09T07:37:59.887Z,70.49
2019-02-09T07:39:08.976Z,70.62
2019-02-09T07:40:23.839Z,70.64
2019-02-09T07:41:30.029Z,70.52
2019-02-09T07:42:36.956Z,70.53
2019-02-09T07:43:43.617Z,70.41
2019-02-09T07:44:50.499Z,70.07
2019-02-09T07:45:57.157Z,70.02
2019-02-09T07:47:03.736Z,70.05
2019-02-09T07:48:10.347Z,70.15
2019-02-09T07:49:17.604Z,70.07
2019-02-09T07:50:28.707Z,69.87
2019-02-09T07:51:34.564Z,69.73
2019-02-09T07:52:40.458Z,69.77
2019-02-09T07:53:47.436Z,69.79
2019-02-09T07:54:53.630Z,69.72
2019-02-09T07:56:00.423Z,69.85
2019-02-09T07:57:07.023Z,69.76
2019-02-09T07:58:13.926Z,69.69
2019-02-09T07:59:20.430Z,69.59
2019-02-09T08:00:33.311Z,69.68
2019-02-09T08:01:39.894Z,69.61
2019-02-09T08:02:47.421Z,69.48
2019-02-09T08:03:53.912Z,69.62
2019-02-09T08:05:02.705Z,69.47
2019-02-09T08:06:09.042Z,69.31
2019-02-09T08:07:16.633Z,69.28
2019-02-09T08:08:23.854Z,69.12
2019-02-09T08:09:31.874Z,68.97
2019-02-09T08:10:40.088Z,68.95
2019-02-09T08:11:46.279Z,68.97
2019-02-09T08:12:52.729Z,68.74
2019-02-09T08:13:59.946Z,68.60
2019-02-09T08:15:10.943Z,68.75
2019-02-09T08:16:18.311Z,68.48
2019-02-09T08:17:25.662Z,68.82
2019-02-09T08:18:32.043Z,68.78
2019-02-09T08:19:38.996Z,69.00
2019-02-09T08:20:45.583Z,68.98
2019-02-09T08:21:54.845Z,68.91
2019-02-09T08:23:22.100Z,68.85
2019-02-09T08:24:28.860Z,68.81
2019-02-09T08:25:39.109Z,68.72
2019-02-09T08:26:45.929Z,68.63
2019-02-09T08:28:17.397Z,68.38
2019-02-09T08:29:29.861Z,68.22
2019-02-09T08:30:42.860Z,67.91
2019-02-09T08:31:50.088Z,67.96
2019-02-09T08:32:57.608Z,67.61
2019-02-09T08:34:05.182Z,67.44
2019-02-09T08:35:12.302Z,67.33
2019-02-09T08:36:19.320Z,67.33
2019-02-09T08:37:27.815Z,67.19
2019-02-09T08:38:34.769Z,67.06
2019-02-09T08:39:42.089Z,67.11
2019-02-09T08:40:49.690Z,67.20
2019-02-09T08:41:56.770Z,67.02
2019-02-09T08:43:03.362Z,67.05
2019-02-09T08:44:10.109Z,67.20
2019-02-09T08:45:21.394Z,67.12
2019-02-09T08:46:28.000Z,67.03
2019-02-09T08:47:34.860Z,66.89
2019-02-09T08:48:41.203Z,66.54
2019-02-09T08:49:47.849Z,66.45
2019-02-09T08:51:01.966Z,66.20
2019-02-09T08:52:09.767Z,66.01
2019-02-09T08:53:16.964Z,65.70
2019-02-09T08:54:23.115Z,65.85
2019-02-09T08:55:29.593Z,65.77
2019-02-09T08:56:36.635Z,65.74
2019-02-09T08:57:43.819Z,65.09
2019-02-09T08:58:50.621Z,65.48
2019-02-09T08:59:58.359Z,65.60
2019-02-09T09:01:05.259Z,65.70
2019-02-09T09:02:20.210Z,65.74
2019-02-09T09:03:21.118Z,65.56
2019-02-09T09:04:29.269Z,65.54
2019-02-09T09:05:35.621Z,65.49
2019-02-09T09:06:42.878Z,65.37
2019-02-09T09:07:50.423Z,65.10
2019-02-09T09:08:57.867Z,64.85
2019-02-09T09:10:07.160Z,65.02
2019-02-09T09:11:13.290Z,64.55
2019-02-09T09:12:19.504Z,64.50
2019-02-09T09:13:25.896Z,63.96
2019-02-09T09:14:31.863Z,63.73
2019-02-09T09:15:51.443Z,63.57
2019-02-09T09:16:57.387Z,63.71
2019-02-09T09:18:03.317Z,63.65
2019-02-09T09:19:09.477Z,63.59
2019-02-09T09:20:27.195Z,63.60
2019-02-09T09:21:33.216Z,63.68
2019-02-09T09:22:41.286Z,63.87
2019-02-09T09:23:47.304Z,64.01
2019-02-09T09:24:53.403Z,63.99
2019-02-09T09:26:00.223Z,63.50
2019-02-09T09:27:07.217Z,63.80
2019-02-09T09:28:15.582Z,63.75
2019-02-09T09:29:21.742Z,62.60
2019-02-09T09:30:51.924Z,63.23
2019-02-09T09:31:58.570Z,63.19
2019-02-09T09:33:07.023Z,63.13
2019-02-09T09:34:13.715Z,62.97
2019-02-09T09:35:20.896Z,62.98
2019-02-09T09:36:27.763Z,62.75
2019-02-09T09:37:34.983Z,62.80
2019-02-09T09:39:58.576Z,62.49
2019-02-09T09:41:05.911Z,62.57
2019-02-09T09:42:12.843Z,62.34
2019-02-09T09:43:20.163Z,62.39
2019-02-09T09:44:26.842Z,62.65
2019-02-09T09:45:38.024Z,62.86
2019-02-09T09:46:43.823Z,62.91
2019-02-09T09:47:49.963Z,62.96
2019-02-09T09:48:56.184Z,62.91
2019-02-09T09:50:02.436Z,62.59
2019-02-09T09:51:08.176Z,62.44
2019-02-09T09:52:14.356Z,62.48
2019-02-09T09:53:21.278Z,62.49
2019-02-09T09:54:27.542Z,62.43
2019-02-09T09:55:33.723Z,62.42
2019-02-09T09:56:40.102Z,62.33
2019-02-09T09:57:46.116Z,62.39
2019-02-09T09:58:52.849Z,62.19
2019-02-09T09:59:59.584Z,62.11
2019-02-09T10:01:06.203Z,62.04
2019-02-09T10:02:13.238Z,61.94
2019-02-09T10:03:20.556Z,61.92
2019-02-09T10:04:27.755Z,61.56
2019-02-09T10:05:34.624Z,61.62
2019-02-09T10:06:41.431Z,61.71
2019-02-09T10:07:48.521Z,62.00
2019-02-09T10:08:55.907Z,62.25
2019-02-09T10:10:02.396Z,62.04
2019-02-09T10:11:08.962Z,61.92
2019-02-09T10:12:16.143Z,62.45
2019-02-09T10:13:22.802Z,62.42
2019-02-09T10:14:29.943Z,62.17
2019-02-09T10:15:36.742Z,61.76
2019-02-09T10:16:42.623Z,61.81
2019-02-09T10:17:48.695Z,61.66
2019-02-09T10:18:54.956Z,61.71
2019-02-09T10:20:01.302Z,61.65
2019-02-09T10:21:07.435Z,61.83
2019-02-09T10:22:15.476Z,62.07
2019-02-09T10:23:21.655Z,62.00
2019-02-09T10:24:27.803Z,61.90
2019-02-09T10:25:33.846Z,61.93
2019-02-09T10:26:41.297Z,61.92
2019-02-09T10:27:47.723Z,61.95
2019-02-09T10:30:23.083Z,62.29
2019-02-09T10:31:30.303Z,62.71
2019-02-09T10:32:44.156Z,62.99
2019-02-09T10:33:45.599Z,63.15
2019-02-09T10:34:52.543Z,63.44
2019-02-09T10:35:59.403Z,63.21
2019-02-09T10:37:06.442Z,63.33
2019-02-09T10:38:14.125Z,63.08
2019-02-09T10:39:21.022Z,63.07
2019-02-09T10:40:34.657Z,63.14
2019-02-09T10:41:41.344Z,63.44
2019-02-09T10:42:47.846Z,63.22
2019-02-09T10:43:54.704Z,63.39
2019-02-09T10:45:03.222Z,63.77
2019-02-09T10:46:11.503Z,63.40
2019-02-09T10:47:17.611Z,63.47
2019-02-09T10:48:23.325Z,63.62
2019-02-09T10:49:29.776Z,63.53
2019-02-09T10:50:39.507Z,63.66
2019-02-09T10:51:45.896Z,64.04
2019-02-09T10:52:51.723Z,64.14
2019-02-09T10:53:57.683Z,64.26
2019-02-09T10:55:03.403Z,64.29
2019-02-09T10:56:09.422Z,64.46
2019-02-09T10:57:15.334Z,64.32
2019-02-09T10:58:22.390Z,64.10
2019-02-09T10:59:28.585Z,64.20
2019-02-09T11:00:45.288Z,64.10
2019-02-09T11:01:51.815Z,64.25
2019-02-09T11:02:58.345Z,64.14
2019-02-09T11:04:05.223Z,64.03
2019-02-09T11:05:14.976Z,64.13
2019-02-09T11:06:21.883Z,64.06
2019-02-09T11:07:28.536Z,64.20
2019-02-09T11:08:35.273Z,64.42
2019-02-09T11:09:53.747Z,64.63
2019-02-09T11:11:00.166Z,64.69
2019-02-09T11:12:07.304Z,64.97
2019-02-09T11:13:13.144Z,65.26
2019-02-09T11:14:20.135Z,65.47
2019-02-09T11:15:29.198Z,65.72
2019-02-09T11:16:36.148Z,65.77
2019-02-09T11:17:42.056Z,66.05
2019-02-09T11:18:47.897Z,66.00
2019-02-09T11:19:53.943Z,66.24
2019-02-09T11:20:59.982Z,66.03
2019-02-09T11:22:05.944Z,65.99
2019-02-09T11:23:11.676Z,66.00
2019-02-09T11:24:18.018Z,65.83
2019-02-09T11:25:24.982Z,65.87
2019-02-09T11:26:30.844Z,65.90
2019-02-09T11:27:37.002Z,65.85
2019-02-09T11:28:43.427Z,65.90
2019-02-09T11:29:50.169Z,65.95
2019-02-09T11:30:56.638Z,65.99
2019-02-09T11:32:04.563Z,66.09
2019-02-09T11:33:12.743Z,66.23
2019-02-09T11:34:19.934Z,66.21
2019-02-09T11:35:26.102Z,66.48
2019-02-09T11:36:32.233Z,66.52
2019-02-09T11:37:38.924Z,66.51
2019-02-09T11:38:45.663Z,66.66
2019-02-09T11:39:51.442Z,66.56
2019-02-09T11:40:58.622Z,66.52
2019-02-09T11:42:05.284Z,66.45
2019-02-09T11:43:11.943Z,66.32
2019-02-09T11:44:17.815Z,66.27
2019-02-09T11:45:33.024Z,66.17
2019-02-09T11:46:39.943Z,66.10
2019-02-09T11:47:46.043Z,66.05
2019-02-09T11:48:51.783Z,65.98
2019-02-09T11:49:58.520Z,66.04
2019-02-09T11:51:04.505Z,66.25
2019-02-09T11:52:10.816Z,66.35
2019-02-09T11:53:16.695Z,66.71
2019-02-09T11:54:22.904Z,66.66
2019-02-09T11:55:28.810Z,66.95
2019-02-09T11:56:36.315Z,67.17
2019-02-09T11:57:42.624Z,67.17
2019-02-09T11:58:48.882Z,67.24
2019-02-09T11:59:54.823Z,67.17
2019-02-09T12:01:01.698Z,67.23
2019-02-09T12:02:08.456Z,67.35
2019-02-09T12:03:16.336Z,67.29
2019-02-09T12:04:23.863Z,67.13
2019-02-09T12:05:30.555Z,66.86
2019-02-09T12:06:37.815Z,66.90
2019-02-09T12:07:45.242Z,66.91
2019-02-09T12:08:52.019Z,66.74
2019-02-09T12:09:59.815Z,66.69
2019-02-09T12:11:06.939Z,66.33
2019-02-09T12:12:14.009Z,66.08
2019-02-09T12:13:21.122Z,65.93
2019-02-09T12:14:28.016Z,65.90
2019-02-09T12:15:39.616Z,66.04
2019-02-09T12:16:45.824Z,66.17
2019-02-09T12:17:55.362Z,66.18
2019-02-09T12:19:01.313Z,66.14
2019-02-09T12:20:19.263Z,65.99
2019-02-09T12:21:27.263Z,66.16
2019-02-09T12:22:34.075Z,65.97
2019-02-09T12:23:40.368Z,65.98
2019-02-09T12:24:46.480Z,65.79
2019-02-09T12:25:52.629Z,65.70
2019-02-09T12:26:58.783Z,65.45
2019-02-09T12:28:07.675Z,65.38
2019-02-09T12:29:14.083Z,65.42
2019-02-09T12:30:26.483Z,65.44
2019-02-09T12:31:32.523Z,65.44
2019-02-09T12:32:40.022Z,65.66
2019-02-09T12:33:46.157Z,65.70
2019-02-09T12:34:52.862Z,65.57
2019-02-09T12:36:00.062Z,65.65
2019-02-09T12:37:08.467Z,65.68
2019-02-09T12:38:19.404Z,65.66
2019-02-09T12:39:26.395Z,65.76
2019-02-09T12:40:35.318Z,65.59
2019-02-09T12:41:42.043Z,65.58
2019-02-09T12:43:36.022Z,65.59
2019-02-09T12:44:47.196Z,65.42
2019-02-09T12:46:37.344Z,65.40
2019-02-09T12:47:48.284Z,65.18
2019-02-09T12:48:54.057Z,65.12
2019-02-09T12:49:59.736Z,64.90
2019-02-09T12:51:06.942Z,64.80
2019-02-09T12:52:14.783Z,64.80
2019-02-09T12:53:20.875Z,64.73
2019-02-09T12:54:28.556Z,64.74
2019-02-09T12:55:34.664Z,64.71
2019-02-09T12:56:40.823Z,64.93
2019-02-09T12:57:46.410Z,64.84
2019-02-09T12:58:52.842Z,64.80
2019-02-09T13:00:00.264Z,64.93
2019-02-09T13:01:07.803Z,64.90
2019-02-09T13:02:14.803Z,64.83
2019-02-09T13:03:31.265Z,64.75
2019-02-09T13:04:35.668Z,64.46
2019-02-09T13:05:42.143Z,64.39
2019-02-09T13:06:48.282Z,64.33
2019-02-09T13:07:54.937Z,64.03
2019-02-09T13:09:01.137Z,63.90
2019-02-09T13:10:12.773Z,63.84
2019-02-09T13:11:20.782Z,63.75
2019-02-09T13:12:27.063Z,63.72
2019-02-09T13:13:32.983Z,63.62
2019-02-09T13:14:39.942Z,63.62
2019-02-09T13:15:47.062Z,63.49
2019-02-09T13:16:53.823Z,63.51
2019-02-09T13:17:59.715Z,63.62
2019-02-09T13:19:05.785Z,63.78
2019-02-09T13:20:16.422Z,63.93
2019-02-09T13:21:22.543Z,64.21
2019-02-09T13:22:28.997Z,64.08
2019-02-09T13:23:35.424Z,64.19
2019-02-09T13:24:41.643Z,64.27
2019-02-09T13:25:50.455Z,64.39
2019-02-09T13:26:56.815Z,64.31
2019-02-09T13:28:03.782Z,64.35
2019-02-09T13:29:11.202Z,64.25
2019-02-09T13:30:29.803Z,64.15
2019-02-09T13:31:36.306Z,64.13
2019-02-09T13:32:43.519Z,64.10
2019-02-09T13:33:50.159Z,63.96
2019-02-09T13:34:56.160Z,63.81
2019-02-09T13:36:03.554Z,63.77
2019-02-09T13:37:09.527Z,63.47
2019-02-09T13:38:15.989Z,63.50
2019-02-09T13:39:22.494Z,63.28
2019-02-09T13:40:30.770Z,63.26
2019-02-09T13:41:37.180Z,63.24
2019-02-09T13:42:44.840Z,63.27
2019-02-09T13:43:51.001Z,63.30
2019-02-09T13:44:57.671Z,63.42
2019-02-09T13:46:04.876Z,63.63
2019-02-09T13:47:10.581Z,63.73
2019-02-09T13:48:16.151Z,63.92
2019-02-09T13:49:21.696Z,63.85
2019-02-09T13:50:28.281Z,64.00
2019-02-09T13:51:36.846Z,64.01
2019-02-09T13:52:42.509Z,63.96
2019-02-09T13:53:48.066Z,63.86
2019-02-09T13:54:53.774Z,63.70
2019-02-09T13:55:59.323Z,63.67
2019-02-09T13:57:04.941Z,63.73
2019-02-09T13:58:11.038Z,63.64
2019-02-09T13:59:18.598Z,63.49
2019-02-09T14:00:30.637Z,63.45
2019-02-09T14:01:36.925Z,63.54
2019-02-09T14:02:43.682Z,63.51
2019-02-09T14:03:50.167Z,63.52
2019-02-09T14:04:57.080Z,63.64
2019-02-09T14:06:08.194Z,63.61
2019-02-09T14:07:11.519Z,63.87
2019-02-09T14:08:18.079Z,64.00
2019-02-09T14:09:24.599Z,64.30
2019-02-09T14:10:31.717Z,64.47
2019-02-09T14:11:38.729Z,64.66
2019-02-09T14:12:45.431Z,64.79
2019-02-09T14:13:52.629Z,64.93
2019-02-09T14:14:59.972Z,65.04
2019-02-09T14:16:08.266Z,64.95
2019-02-09T14:17:13.870Z,64.86
2019-02-09T14:18:19.841Z,64.79
2019-02-09T14:19:25.472Z,64.73
2019-02-09T14:20:31.123Z,64.74
2019-02-09T14:21:37.785Z,64.66
2019-02-09T14:22:43.590Z,64.70
2019-02-09T14:23:49.301Z,64.64
2019-02-09T14:24:56.340Z,64.61
2019-02-09T14:26:02.578Z,64.63
2019-02-09T14:27:10.285Z,64.67
2019-02-09T14:28:23.033Z,64.62
2019-02-09T14:29:30.239Z,64.76
2019-02-09T14:30:39.970Z,64.83
2019-02-09T14:31:47.251Z,64.82
2019-02-09T14:32:53.790Z,65.06
2019-02-09T14:34:00.615Z,65.08
2019-02-09T14:35:10.879Z,65.13
2019-02-09T14:36:17.513Z,65.19
2019-02-09T14:37:24.470Z,65.19
2019-02-09T14:38:31.092Z,65.10
2019-02-09T14:39:38.217Z,65.06
2019-02-09T14:40:45.400Z,65.05
2019-02-09T14:41:53.072Z,65.05
2019-02-09T14:42:59.990Z,64.86